createdAt,value
2022-08-18T00:18:09.072Z,23.50
2022-08-18T00:20:36.787Z,23.60
2022-08-18T00:23:03.614Z,23.60
2022-08-18T00:53:22.088Z,23.40
2022-08-18T00:55:53.710Z,23.40
2022-08-18T00:58:29.264Z,23.40
2022-08-18T01:03:44.271Z,23.30
2022-08-18T01:22:43.607Z,23.10
2022-08-18T01:38:57.514Z,23.00
2022-08-18T01:41:30.394Z,22.90
2022-08-18T01:43:59.927Z,23.00
2022-08-18T01:46:29.900Z,22.90
2022-08-18T01:48:58.534Z,22.90
2022-08-18T02:05:19.771Z,22.80
2022-08-18T02:33:20.089Z,22.50
2022-08-18T02:35:54.020Z,22.50
2022-08-18T02:38:21.081Z,22.50
2022-08-18T02:40:54.026Z,22.30
2022-08-18T02:57:12.916Z,22.30
2022-08-18T02:59:40.986Z,22.20
2022-08-18T03:07:40.112Z,22.10
2022-08-18T03:16:27.464Z,22.10
2022-08-18T03:30:18.534Z,22.00
2022-08-18T03:32:47.516Z,20.90
2022-08-18T03:35:14.716Z,21.90
2022-08-18T03:37:42.286Z,21.90
2022-08-18T03:48:28.688Z,21.80
2022-08-18T03:56:33.682Z,21.80
2022-08-18T04:04:31.676Z,21.80
2022-08-18T04:07:04.858Z,20.50
2022-08-18T04:12:17.563Z,21.80
2022-08-18T04:37:15.873Z,21.90
2022-08-18T04:39:45.532Z,21.90
2022-08-18T04:53:22.512Z,22.30
2022-08-18T04:56:26.793Z,22.10
2022-08-18T04:58:59.219Z,22.20
2022-08-18T05:01:31.852Z,21.90
2022-08-18T05:03:59.133Z,22.40
2022-08-18T05:06:28.182Z,22.40
2022-08-18T05:09:00.566Z,22.50
2022-08-18T05:16:49.703Z,22.70
2022-08-18T05:22:26.808Z,22.80
2022-08-18T05:30:30.144Z,21.10
2022-08-18T05:33:10.736Z,23.10
2022-08-18T05:35:55.179Z,23.20
2022-08-18T05:44:50.963Z,23.60
2022-08-18T05:49:55.165Z,23.80
2022-08-18T05:58:57.400Z,24.10
2022-08-18T06:11:38.168Z,24.40
2022-08-18T06:17:21.624Z,24.60
2022-08-18T06:25:42.871Z,24.70
2022-08-18T06:31:02.491Z,24.80
2022-08-18T06:33:51.518Z,24.90
2022-08-18T06:41:44.069Z,25.10
2022-08-18T06:44:21.420Z,25.20
2022-08-18T06:49:59.702Z,25.40
2022-08-18T06:52:26.881Z,25.50
2022-08-18T07:08:44.831Z,26.10
2022-08-18T07:11:25.104Z,26.30
2022-08-18T07:22:17.383Z,26.80
2022-08-18T07:24:47.560Z,26.90
2022-08-18T07:27:51.597Z,27.00
2022-08-18T07:30:21.530Z,27.10
2022-08-18T07:36:31.929Z,27.20
2022-08-18T07:39:13.482Z,27.20
2022-08-18T07:44:33.304Z,27.30
2022-08-18T07:47:05.438Z,27.40
2022-08-18T07:49:36.644Z,27.00
2022-08-18T07:54:58.685Z,27.60
2022-08-18T07:57:43.570Z,27.70
2022-08-18T08:00:47.710Z,27.90
2022-08-18T08:03:19.904Z,28.00
2022-08-18T08:06:24.167Z,28.10
2022-08-18T08:18:01.276Z,28.60
2022-08-18T08:23:54.960Z,28.70
2022-08-18T08:38:40.078Z,29.40
2022-08-18T08:50:09.237Z,29.80
2022-08-18T08:55:41.206Z,30.20
2022-08-18T09:36:58.615Z,32.30
2022-08-18T09:42:12.688Z,32.50
2022-08-18T09:44:45.805Z,32.70
2022-08-18T09:50:04.526Z,32.80
2022-08-18T09:52:37.470Z,32.80
2022-08-18T09:55:28.913Z,32.90
2022-08-18T09:58:18.337Z,33.10
2022-08-18T10:00:46.037Z,33.30
2022-08-18T10:03:40.114Z,33.40
2022-08-18T10:06:17.872Z,33.50
2022-08-18T10:09:01.981Z,33.60
2022-08-18T10:12:17.042Z,33.80
2022-08-18T10:15:33.964Z,34.00
2022-08-18T10:18:19.231Z,34.20
2022-08-18T10:21:07.937Z,34.50
2022-08-18T10:26:54.250Z,34.90
2022-08-18T10:29:28.577Z,35.10
2022-08-18T10:31:56.030Z,35.20
2022-08-18T10:34:52.911Z,35.40
2022-08-18T10:37:21.888Z,35.60
2022-08-18T10:40:21.193Z,35.80
2022-08-18T10:46:24.215Z,35.90
2022-08-18T10:48:57.334Z,36.10
2022-08-18T10:51:57.884Z,36.20
2022-08-18T10:54:51.625Z,36.50
2022-08-18T10:57:42.695Z,36.70
2022-08-18T11:00:19.801Z,36.90
2022-08-18T11:02:46.518Z,37.00
2022-08-18T11:05:22.900Z,37.10
2022-08-18T11:07:56.457Z,37.30
2022-08-18T11:13:32.185Z,37.50
2022-08-18T11:16:10.363Z,37.80
2022-08-18T11:18:49.564Z,38.10
2022-08-18T11:21:42.772Z,38.20
2022-08-18T11:24:35.462Z,38.40
2022-08-18T11:27:17.700Z,38.50
2022-08-18T11:29:46.594Z,38.50
2022-08-18T11:32:37.190Z,38.60
2022-08-18T11:35:18.571Z,38.60
2022-08-18T11:37:53.857Z,38.70
2022-08-18T11:43:24.018Z,39.00
2022-08-18T11:45:56.030Z,39.40
2022-08-18T11:48:35.992Z,39.90
2022-08-18T11:51:27.995Z,40.30
2022-08-18T11:54:01.035Z,40.70
2022-08-18T11:56:37.881Z,41.00
2022-08-18T11:59:54.255Z,41.20
2022-08-18T12:02:25.463Z,41.50
2022-08-18T12:05:03.453Z,41.70
2022-08-18T12:07:36.910Z,42.10
2022-08-18T12:13:22.771Z,43.20
2022-08-18T12:16:10.097Z,43.90
2022-08-18T12:18:37.221Z,44.90
2022-08-18T12:21:05.309Z,45.60
2022-08-18T12:23:39.021Z,46.70
2022-08-18T12:26:26.929Z,47.40
2022-08-18T12:29:03.922Z,48.60
2022-08-18T12:31:42.300Z,49.30
2022-08-18T12:34:16.691Z,49.70
2022-08-18T12:36:44.976Z,49.70
2022-08-18T12:39:13.530Z,49.50
2022-08-18T12:41:41.059Z,49.60
2022-08-18T12:44:13.396Z,50.10
2022-08-18T12:46:42.819Z,50.20
2022-08-18T12:49:31.074Z,50.70
2022-08-18T12:51:58.484Z,50.80
2022-08-18T12:54:25.768Z,50.60
2022-08-18T12:56:56.199Z,50.50
2022-08-18T12:59:24.606Z,50.90
2022-08-18T13:01:51.812Z,51.00
2022-08-18T13:04:27.028Z,51.20
2022-08-18T13:07:00.457Z,51.10
2022-08-18T13:09:35.371Z,50.90
2022-08-18T13:12:16.664Z,51.00
2022-08-18T13:14:45.318Z,50.50
2022-08-18T13:17:32.921Z,50.30
2022-08-18T13:20:13.587Z,50.50
2022-08-18T13:22:41.022Z,50.70
2022-08-18T13:25:10.938Z,51.10
2022-08-18T13:27:45.135Z,51.30
2022-08-18T13:30:29.830Z,50.80
2022-08-18T13:33:02.545Z,50.70
2022-08-18T13:35:37.891Z,50.10
2022-08-18T13:38:14.461Z,49.60
2022-08-18T13:40:46.960Z,48.80
2022-08-18T13:43:15.838Z,48.60
2022-08-18T13:45:48.101Z,47.10
2022-08-18T13:48:20.006Z,45.80
2022-08-18T13:50:47.607Z,44.10
2022-08-18T13:53:21.824Z,43.40
2022-08-18T13:55:49.566Z,43.20
2022-08-18T13:58:17.688Z,43.50
2022-08-18T14:00:53.997Z,43.70
2022-08-18T14:03:42.935Z,43.70
2022-08-18T14:06:11.575Z,43.90
2022-08-18T14:08:40.507Z,44.20
2022-08-18T14:11:08.920Z,44.30
2022-08-18T14:13:38.391Z,44.70
2022-08-18T14:16:16.102Z,44.90
2022-08-18T14:19:09.855Z,44.80
2022-08-18T14:22:03.566Z,44.10
2022-08-18T14:24:53.318Z,43.90
2022-08-18T14:27:38.224Z,43.20
2022-08-18T14:30:08.720Z,42.30
2022-08-18T14:32:36.574Z,41.20
2022-08-18T14:35:34.622Z,40.70
2022-08-18T14:38:09.979Z,40.00
2022-08-18T14:40:41.744Z,39.30
2022-08-18T14:43:11.705Z,38.90
2022-08-18T14:45:48.810Z,38.50
2022-08-18T14:48:18.733Z,38.20
2022-08-18T14:50:55.371Z,38.10
2022-08-18T14:53:26.175Z,38.00
2022-08-18T14:55:55.097Z,38.00
2022-08-18T14:58:27.855Z,38.00
2022-08-18T15:01:08.243Z,38.10
2022-08-18T15:03:36.915Z,38.60
2022-08-18T15:06:05.618Z,39.10
2022-08-18T15:08:35.421Z,39.60
2022-08-18T15:11:06.043Z,39.90
2022-08-18T15:13:42.347Z,40.50
2022-08-18T15:16:13.548Z,41.30
2022-08-18T15:18:45.060Z,42.10
2022-08-18T15:21:34.868Z,42.90
2022-08-18T15:24:24.063Z,43.80
2022-08-18T15:26:58.228Z,44.20
2022-08-18T15:29:33.318Z,44.10
2022-08-18T15:32:06.195Z,44.10
2022-08-18T15:34:46.770Z,44.10
2022-08-18T15:37:19.799Z,44.40
2022-08-18T15:39:58.755Z,44.80
2022-08-18T15:42:26.084Z,44.80
2022-08-18T15:44:54.325Z,45.00
2022-08-18T15:47:25.061Z,44.90
2022-08-18T15:49:52.682Z,44.70
2022-08-18T15:52:22.611Z,44.40
2022-08-18T15:54:50.387Z,43.90
2022-08-18T15:57:38.987Z,43.20
2022-08-18T16:00:06.079Z,42.60
2022-08-18T16:02:32.979Z,42.20
2022-08-18T16:05:10.249Z,41.60
2022-08-18T16:07:52.186Z,41.00
2022-08-18T16:10:22.554Z,40.80
2022-08-18T16:12:50.130Z,40.10
2022-08-18T16:15:21.104Z,39.50
2022-08-18T16:17:50.464Z,39.20
2022-08-18T16:20:18.923Z,38.70
2022-08-18T16:22:47.148Z,38.30
2022-08-18T16:25:14.478Z,37.90
2022-08-18T16:27:41.820Z,37.40
2022-08-18T16:30:28.555Z,37.10
2022-08-18T16:33:01.295Z,36.90
2022-08-18T16:35:28.652Z,36.70
2022-08-18T16:37:56.145Z,36.70
2022-08-18T16:40:23.457Z,36.60
2022-08-18T16:42:55.510Z,36.60
2022-08-18T16:45:22.985Z,36.80
2022-08-18T16:47:49.773Z,36.90
2022-08-18T16:50:20.027Z,37.00
2022-08-18T16:52:46.808Z,37.20
2022-08-18T16:55:13.668Z,37.20
2022-08-18T16:58:01.287Z,37.00
2022-08-18T17:00:51.521Z,36.70
2022-08-18T17:03:43.634Z,36.30
2022-08-18T17:06:13.890Z,36.20
2022-08-18T17:08:42.230Z,36.10
2022-08-18T17:11:16.437Z,35.80
2022-08-18T17:13:44.609Z,35.40
2022-08-18T17:16:12.513Z,35.10
2022-08-18T17:18:40.637Z,34.90
2022-08-18T17:21:10.245Z,34.40
2022-08-18T17:23:38.846Z,34.10
2022-08-18T17:26:09.380Z,33.80
2022-08-18T17:28:50.795Z,33.50
2022-08-18T17:31:24.562Z,33.30
2022-08-18T17:33:57.282Z,33.00
2022-08-18T17:36:55.111Z,32.70
2022-08-18T17:39:30.913Z,32.50
2022-08-18T17:42:16.338Z,32.30
2022-08-18T18:07:47.666Z,30.60
2022-08-18T18:10:22.574Z,30.40
2022-08-18T18:26:45.909Z,29.70
2022-08-18T19:00:53.447Z,28.90
2022-08-18T19:03:28.667Z,27.60
2022-08-18T19:17:31.374Z,28.60
2022-08-18T19:20:33.067Z,28.60
2022-08-18T19:23:10.883Z,28.50
2022-08-18T19:32:00.534Z,28.40
2022-08-18T19:34:30.048Z,28.30
2022-08-18T19:40:16.389Z,28.20
2022-08-18T19:42:49.527Z,28.20
2022-08-18T19:45:31.427Z,28.00
2022-08-18T19:48:10.148Z,28.00
2022-08-18T19:54:18.305Z,27.90
2022-08-18T20:03:11.388Z,29.60
2022-08-18T20:05:54.607Z,27.70
2022-08-18T20:11:18.729Z,27.60
2022-08-18T20:17:13.158Z,27.50
2022-08-18T20:19:43.338Z,27.50
2022-08-18T20:22:30.094Z,27.50
2022-08-18T20:25:07.229Z,27.40
2022-08-18T20:27:42.288Z,27.40
2022-08-18T20:30:29.807Z,27.40
2022-08-18T20:33:06.909Z,27.30
2022-08-18T20:35:47.210Z,27.20
2022-08-18T20:47:19.426Z,27.10
2022-08-18T20:50:04.739Z,27.10
2022-08-18T20:53:02.655Z,27.10
2022-08-18T20:56:12.938Z,27.00
2022-08-18T21:13:07.457Z,26.80
2022-08-18T21:15:38.513Z,26.80
2022-08-18T21:24:31.588Z,26.60
2022-08-18T21:27:03.397Z,26.60
2022-08-18T21:32:36.298Z,26.50
2022-08-18T21:35:18.411Z,26.50
2022-08-18T21:37:58.136Z,26.50
2022-08-18T21:46:20.809Z,26.50
2022-08-18T21:48:50.793Z,26.50
2022-08-18T21:53:53.857Z,26.40
2022-08-18T21:56:28.855Z,26.30
2022-08-18T21:59:09.717Z,26.20
2022-08-18T22:07:00.807Z,26.20
2022-08-18T22:09:50.869Z,26.10
2022-08-18T22:12:37.467Z,26.10
2022-08-18T22:27:15.227Z,25.90
2022-08-18T22:29:49.937Z,25.90
2022-08-18T22:38:40.496Z,25.70
2022-08-18T22:41:07.331Z,25.60
2022-08-18T22:56:55.211Z,25.50
2022-08-18T23:04:55.050Z,25.50
2022-08-18T23:12:47.707Z,25.60
2022-08-18T23:15:41.548Z,25.60
2022-08-18T23:18:19.073Z,25.60
2022-08-18T23:20:48.450Z,25.60
2022-08-18T23:23:20.772Z,25.50
2022-08-18T23:25:50.308Z,25.50
2022-08-18T23:36:23.091Z,25.30
2022-08-18T23:38:49.878Z,25.20
2022-08-18T23:43:53.113Z,25.00
2022-08-18T23:46:28.544Z,24.90
2022-08-18T23:54:33.070Z,24.60
2022-08-18T23:57:00.805Z,24.60
